createdAt,value
2023-04-18T00:01:44.735Z,7.65
2023-04-18T00:05:48.245Z,7.65
2023-04-18T00:09:50.044Z,7.63
2023-04-18T00:13:51.722Z,7.64
2023-04-18T00:17:56.613Z,7.66
2023-04-18T00:21:58.389Z,7.66
2023-04-18T00:26:00.286Z,7.67
2023-04-18T00:30:02.184Z,7.67
2023-04-18T00:34:05.762Z,7.68
2023-04-18T00:38:07.583Z,7.66
2023-04-18T00:42:09.533Z,7.67
2023-04-18T00:46:11.368Z,7.67
2023-04-18T00:50:13.401Z,7.65
2023-04-18T00:54:18.723Z,7.63
2023-04-18T00:58:20.639Z,7.63
2023-04-18T01:02:23.026Z,7.62
2023-04-18T01:06:28.769Z,7.56
2023-04-18T01:10:32.322Z,7.54
2023-04-18T01:14:34.191Z,7.48
2023-04-18T01:18:40.414Z,7.38
2023-04-18T01:22:42.889Z,7.21
2023-04-18T01:26:47.761Z,7.00
2023-04-18T01:30:49.518Z,6.78
2023-04-18T01:34:53.913Z,6.55
2023-04-18T01:38:55.981Z,6.36
2023-04-18T01:42:57.711Z,6.18
2023-04-18T01:47:00.167Z,6.01
2023-04-18T01:51:01.948Z,5.87
2023-04-18T01:55:04.182Z,5.73
2023-04-18T01:59:05.899Z,5.62
2023-04-18T02:03:07.872Z,5.49
2023-04-18T02:07:09.763Z,5.37
2023-04-18T02:11:11.519Z,5.27
2023-04-18T02:15:13.749Z,5.17
2023-04-18T02:19:15.474Z,5.09
2023-04-18T02:23:18.498Z,4.98
2023-04-18T02:27:20.282Z,4.89
2023-04-18T02:31:22.015Z,4.84
2023-04-18T02:35:24.264Z,4.80
2023-04-18T02:39:25.976Z,4.75
2023-04-18T02:43:27.724Z,4.71
2023-04-18T02:47:31.662Z,4.64
2023-04-18T02:51:35.742Z,4.61
2023-04-18T02:55:37.763Z,4.60
2023-04-18T02:59:39.594Z,4.59
2023-04-18T03:04:02.715Z,4.57
2023-04-18T03:08:16.533Z,4.56
2023-04-18T03:12:18.366Z,4.56
2023-04-18T03:16:21.521Z,4.56
2023-04-18T03:20:23.879Z,4.52
2023-04-18T03:24:27.128Z,4.49
2023-04-18T03:28:32.673Z,4.43
2023-04-18T03:32:35.375Z,4.33
2023-04-18T03:36:37.536Z,4.22
2023-04-18T03:40:40.312Z,4.17
2023-04-18T03:44:49.943Z,4.10
2023-04-18T03:48:51.923Z,4.05
2023-04-18T03:52:53.713Z,4.01
2023-04-18T03:56:55.930Z,3.92
2023-04-18T04:00:58.501Z,3.91
2023-04-18T04:05:00.531Z,3.91
2023-04-18T04:09:02.761Z,3.98
2023-04-18T04:13:05.050Z,4.07
2023-04-18T04:17:10.658Z,4.16
2023-04-18T04:21:14.427Z,4.22
2023-04-18T04:25:24.614Z,4.28
2023-04-18T04:29:29.320Z,4.40
2023-04-18T04:33:33.508Z,4.51
2023-04-18T04:37:41.314Z,4.57
2023-04-18T04:42:04.749Z,4.64
2023-04-18T04:46:15.705Z,4.71
2023-04-18T04:50:19.069Z,4.78
2023-04-18T04:54:20.853Z,4.94
2023-04-18T04:58:22.821Z,5.05
2023-04-18T05:02:48.783Z,5.20
2023-04-18T05:06:51.104Z,5.30
2023-04-18T05:10:52.801Z,5.37
2023-04-18T05:14:54.446Z,5.39
2023-04-18T05:18:57.011Z,5.56
2023-04-18T05:22:58.724Z,5.84
2023-04-18T05:27:00.648Z,6.13
2023-04-18T05:31:02.628Z,6.34
2023-04-18T05:35:07.282Z,6.52
2023-04-18T05:39:10.642Z,6.75
2023-04-18T05:43:15.680Z,6.97
2023-04-18T05:47:22.731Z,7.12
2023-04-18T05:51:28.777Z,7.33
2023-04-18T05:55:30.540Z,7.47
2023-04-18T05:59:32.534Z,7.48
2023-04-18T06:03:36.816Z,7.69
2023-04-18T06:07:42.810Z,7.88
2023-04-18T06:11:46.890Z,7.98
2023-04-18T06:15:54.999Z,8.02
2023-04-18T06:19:57.652Z,8.09
2023-04-18T06:24:01.632Z,8.18
2023-04-18T06:28:03.478Z,8.30
2023-04-18T06:32:10.802Z,8.47
2023-04-18T06:36:14.145Z,8.64
2023-04-18T06:40:17.681Z,8.81
2023-04-18T06:44:20.645Z,8.88
2023-04-18T06:48:26.682Z,8.97
2023-04-18T06:52:30.727Z,9.02
2023-04-18T06:56:36.429Z,9.08
2023-04-18T07:00:40.612Z,9.16
2023-04-18T07:04:44.089Z,9.24
2023-04-18T07:08:46.093Z,9.35
2023-04-18T07:12:48.985Z,9.54
2023-04-18T07:16:54.379Z,9.69
2023-04-18T07:20:57.957Z,9.69
2023-04-18T07:25:03.026Z,9.67
2023-04-18T07:29:05.132Z,9.85
2023-04-18T07:33:06.864Z,9.86
2023-04-18T07:37:14.677Z,9.77
2023-04-18T07:41:17.885Z,9.71
2023-04-18T07:45:21.426Z,9.60
2023-04-18T07:49:24.020Z,9.74
2023-04-18T07:53:28.693Z,9.64
2023-04-18T07:57:31.992Z,9.74
2023-04-18T08:01:36.032Z,9.81
2023-04-18T08:05:40.553Z,10.00
2023-04-18T08:09:46.618Z,10.00
2023-04-18T08:13:50.613Z,10.06
2023-04-18T08:17:53.797Z,10.21
2023-04-18T08:22:08.034Z,10.37
2023-04-18T08:26:09.906Z,10.56
2023-04-18T08:30:12.242Z,10.81
2023-04-18T08:34:14.234Z,11.05
2023-04-18T08:38:17.913Z,11.29
2023-04-18T08:42:26.599Z,11.47
2023-04-18T08:46:34.331Z,11.76
2023-04-18T08:50:36.391Z,11.97
2023-04-18T08:54:44.242Z,12.29
2023-04-18T08:58:47.614Z,12.64
2023-04-18T09:02:56.179Z,12.74
2023-04-18T09:06:59.605Z,12.75
2023-04-18T09:11:31.032Z,13.05
2023-04-18T09:15:33.125Z,13.47
2023-04-18T09:19:38.669Z,13.76
2023-04-18T09:23:42.041Z,13.52
2023-04-18T09:27:43.889Z,13.58
2023-04-18T09:32:00.226Z,13.30
2023-04-18T09:36:22.536Z,12.97
2023-04-18T09:40:24.507Z,12.53
2023-04-18T09:44:27.199Z,12.39
2023-04-18T09:48:30.773Z,12.47
2023-04-18T09:52:35.819Z,12.89
2023-04-18T09:56:44.070Z,13.28
2023-04-18T10:00:47.093Z,13.75
2023-04-18T10:04:54.525Z,13.83
2023-04-18T10:08:57.579Z,13.78
2023-04-18T10:13:01.693Z,13.58
2023-04-18T10:17:03.776Z,13.50
2023-04-18T10:21:09.584Z,13.82
2023-04-18T10:25:11.371Z,14.26
2023-04-18T10:29:13.370Z,15.04
2023-04-18T10:33:41.021Z,15.48
2023-04-18T10:37:59.845Z,15.68
2023-04-18T10:42:05.436Z,15.88
2023-04-18T10:46:27.728Z,15.80
2023-04-18T10:50:34.357Z,16.03
2023-04-18T10:54:52.599Z,16.26
2023-04-18T10:59:01.973Z,15.99
2023-04-18T11:03:04.104Z,16.17
2023-04-18T11:07:08.581Z,16.90
2023-04-18T11:11:13.495Z,17.47
2023-04-18T11:15:22.325Z,17.31
2023-04-18T11:19:25.944Z,16.91
2023-04-18T11:23:28.979Z,16.74
2023-04-18T11:27:32.771Z,16.67
2023-04-18T11:31:35.576Z,16.57
2023-04-18T11:35:45.698Z,17.15
2023-04-18T11:39:48.109Z,17.34
2023-04-18T11:43:50.002Z,17.17
2023-04-18T11:47:56.769Z,17.23
2023-04-18T11:52:01.434Z,17.67
2023-04-18T11:56:06.593Z,18.26
2023-04-18T12:00:12.786Z,18.85
2023-04-18T12:04:17.021Z,18.87
2023-04-18T12:08:21.846Z,18.89
2023-04-18T12:12:26.580Z,18.54
2023-04-18T12:16:28.583Z,18.24
2023-04-18T12:20:47.552Z,18.18
2023-04-18T12:25:10.366Z,18.14
2023-04-18T12:29:12.446Z,17.71
2023-04-18T12:33:16.438Z,17.21
2023-04-18T12:37:18.598Z,16.92
2023-04-18T12:41:22.730Z,16.92
2023-04-18T12:45:26.140Z,16.96
2023-04-18T12:49:27.894Z,16.78
2023-04-18T12:53:33.604Z,16.79
2023-04-18T12:57:36.580Z,17.35
2023-04-18T13:01:38.325Z,17.81
2023-04-18T13:05:41.198Z,18.24
2023-04-18T13:09:43.037Z,18.50
2023-04-18T13:13:48.126Z,18.36
2023-04-18T13:17:50.449Z,18.20
2023-04-18T13:21:55.605Z,18.46
2023-04-18T13:25:58.959Z,18.39
2023-04-18T13:30:01.332Z,18.08
2023-04-18T13:34:06.932Z,18.23
2023-04-18T13:38:09.079Z,18.49
2023-04-18T13:42:16.078Z,18.95
2023-04-18T13:46:21.619Z,19.07
2023-04-18T13:50:23.409Z,19.39
2023-04-18T13:54:28.997Z,19.57
2023-04-18T13:58:32.928Z,19.72
2023-04-18T14:02:34.788Z,19.86
2023-04-18T14:06:41.617Z,20.02
2023-04-18T14:10:44.189Z,20.22
2023-04-18T14:14:51.229Z,20.01
2023-04-18T14:18:54.053Z,19.88
2023-04-18T14:22:57.596Z,19.68
2023-04-18T14:27:02.876Z,18.87
2023-04-18T14:31:06.777Z,18.65
2023-04-18T14:35:10.121Z,18.57
2023-04-18T14:39:13.910Z,18.60
2023-04-18T14:43:16.632Z,18.73
2023-04-18T14:47:19.702Z,18.75
2023-04-18T14:51:21.430Z,18.45
2023-04-18T14:55:24.124Z,18.25
2023-04-18T14:59:28.979Z,18.20
2023-04-18T15:03:33.069Z,18.08
2023-04-18T15:07:36.174Z,17.87
2023-04-18T15:11:38.210Z,17.48
2023-04-18T15:15:41.243Z,17.37
2023-04-18T15:19:44.687Z,17.15
2023-04-18T15:23:46.835Z,17.24
2023-04-18T15:27:48.570Z,17.24
2023-04-18T15:31:51.637Z,17.52
2023-04-18T15:35:56.636Z,17.90
2023-04-18T15:39:58.928Z,17.71
2023-04-18T15:44:01.654Z,17.09
2023-04-18T15:48:03.701Z,17.05
2023-04-18T15:52:07.180Z,17.05
2023-04-18T15:56:11.670Z,16.91
2023-04-18T16:00:19.792Z,16.72
2023-04-18T16:04:25.660Z,16.57
2023-04-18T16:08:27.548Z,16.55
2023-04-18T16:12:31.154Z,16.55
2023-04-18T16:16:34.590Z,16.49
2023-04-18T16:20:36.718Z,16.30
2023-04-18T16:24:40.886Z,15.94
2023-04-18T16:28:44.151Z,16.30
2023-04-18T16:32:46.212Z,17.12
2023-04-18T16:36:50.741Z,17.55
2023-04-18T16:40:57.551Z,17.90
2023-04-18T16:45:03.355Z,18.31
2023-04-18T16:49:05.256Z,17.76
2023-04-18T16:53:07.974Z,17.02
2023-04-18T16:57:09.803Z,16.57
2023-04-18T17:01:11.465Z,16.15
2023-04-18T17:05:14.709Z,15.92
2023-04-18T17:09:16.885Z,15.65
2023-04-18T17:13:30.403Z,15.39
2023-04-18T17:17:33.251Z,15.18
2023-04-18T17:21:36.121Z,14.99
2023-04-18T17:25:38.287Z,14.70
2023-04-18T17:29:41.068Z,14.46
2023-04-18T17:33:43.183Z,14.32
2023-04-18T17:37:48.754Z,14.04
2023-04-18T17:41:50.876Z,13.93
2023-04-18T17:45:52.725Z,13.75
2023-04-18T17:49:55.247Z,13.62
2023-04-18T17:53:57.134Z,13.55
2023-04-18T17:57:59.005Z,13.42
2023-04-18T18:02:00.782Z,13.37
2023-04-18T18:06:02.953Z,13.28
2023-04-18T18:10:06.554Z,13.21
2023-04-18T18:14:12.022Z,13.05
2023-04-18T18:18:14.118Z,12.94
2023-04-18T18:22:17.880Z,12.88
2023-04-18T18:26:19.765Z,12.83
2023-04-18T18:30:21.705Z,12.74
2023-04-18T18:34:27.831Z,12.71
2023-04-18T18:38:29.613Z,12.63
2023-04-18T18:42:31.346Z,12.59
2023-04-18T18:46:34.432Z,12.56
2023-04-18T18:50:36.381Z,12.53
2023-04-18T18:54:38.070Z,12.49
2023-04-18T18:58:41.604Z,12.48
2023-04-18T19:02:43.439Z,12.37
2023-04-18T19:06:45.328Z,12.34
2023-04-18T19:10:48.835Z,12.30
2023-04-18T19:14:52.593Z,12.28
2023-04-18T19:18:54.354Z,12.24
2023-04-18T19:22:56.025Z,12.20
2023-04-18T19:26:57.820Z,12.19
2023-04-18T19:31:00.125Z,12.15
2023-04-18T19:35:01.939Z,12.11
2023-04-18T19:39:03.787Z,12.10
2023-04-18T19:43:06.925Z,12.09
2023-04-18T19:47:09.127Z,12.06
2023-04-18T19:51:12.302Z,12.03
2023-04-18T19:55:14.167Z,12.01
2023-04-18T19:59:19.607Z,11.95
2023-04-18T20:03:21.874Z,11.86
2023-04-18T20:07:26.266Z,11.86
2023-04-18T20:11:28.597Z,11.88
2023-04-18T20:15:30.916Z,11.84
2023-04-18T20:19:32.772Z,11.80
2023-04-18T20:23:37.855Z,11.76
2023-04-18T20:27:39.758Z,11.75
2023-04-18T20:31:44.672Z,11.72
2023-04-18T20:35:46.910Z,11.72
2023-04-18T20:39:48.594Z,11.71
2023-04-18T20:43:53.820Z,11.66
2023-04-18T20:47:58.899Z,11.66
2023-04-18T20:52:01.132Z,11.63
2023-04-18T20:56:03.632Z,11.63
2023-04-18T21:00:07.394Z,11.67
2023-04-18T21:04:11.228Z,11.64
2023-04-18T21:08:13.199Z,11.67
2023-04-18T21:12:15.144Z,11.65
2023-04-18T21:16:17.217Z,11.62
2023-04-18T21:20:20.665Z,11.59
2023-04-18T21:24:24.080Z,11.57
2023-04-18T21:28:25.912Z,11.56
2023-04-18T21:32:27.701Z,11.57
2023-04-18T21:36:31.386Z,11.52
2023-04-18T21:40:34.943Z,11.49
2023-04-18T21:44:37.613Z,11.48
2023-04-18T21:48:43.586Z,11.51
2023-04-18T21:52:45.289Z,11.51
2023-04-18T21:56:46.978Z,11.51
2023-04-18T22:00:49.436Z,11.47
2023-04-18T22:04:51.322Z,11.41
2023-04-18T22:08:53.733Z,11.40
2023-04-18T22:12:56.229Z,11.37
2023-04-18T22:16:59.499Z,11.37
2023-04-18T22:21:05.599Z,11.33
2023-04-18T22:25:11.813Z,11.26
2023-04-18T22:29:13.627Z,11.20
2023-04-18T22:33:15.508Z,11.18
2023-04-18T22:37:17.567Z,11.12
2023-04-18T22:41:19.263Z,11.12
2023-04-18T22:45:21.076Z,11.15
2023-04-18T22:49:23.317Z,11.09
2023-04-18T22:53:25.151Z,11.05
2023-04-18T22:57:26.870Z,11.04
2023-04-18T23:01:28.655Z,11.05
2023-04-18T23:05:30.526Z,11.02
2023-04-18T23:09:33.272Z,10.95
2023-04-18T23:13:34.942Z,10.98
2023-04-18T23:17:36.608Z,11.00
2023-04-18T23:21:38.390Z,10.95
2023-04-18T23:25:40.117Z,10.94
2023-04-18T23:29:42.776Z,10.93
2023-04-18T23:33:45.462Z,10.90
2023-04-18T23:37:47.120Z,10.88
2023-04-18T23:41:48.865Z,10.87
2023-04-18T23:45:50.886Z,10.89
2023-04-18T23:49:52.847Z,10.89
2023-04-18T23:53:54.514Z,10.86
2023-04-18T23:57:56.189Z,10.84
